Time;durP1;ratioP1;P1;durP2;ratioP2;P2;SDS_P1;SDS_P2;PMS_P1;PMS_P2;Temp;Humidity;BMP_temperature;BMP_pressure;BME280_temperature;BME280_humidity;BME280_pressure;Samples;Min_cycle;Max_cycle;Signal;HPM_P1;HPM_P2
2022/07/06 00:01:06;;;;;;;0.00;0.00;;;16.40;99.90;;;;;;4979396;28;20454;-77
2022/07/06 00:03:34;;;;;;;0.00;0.00;;;16.40;99.90;;;;;;4979726;28;20530;-76
2022/07/06 00:06:02;;;;;;;0.00;0.00;;;16.30;99.90;;;;;;4978202;28;20997;-76
2022/07/06 00:08:31;;;;;;;0.00;0.00;;;16.30;99.90;;;;;;4978615;28;20475;-76
2022/07/06 00:10:59;;;;;;;0.00;0.00;;;16.30;99.90;;;;;;4978487;28;20927;-74
2022/07/06 00:13:27;;;;;;;0.00;0.00;;;16.30;99.90;;;;;;4978881;28;20962;-75
2022/07/06 00:15:55;;;;;;;0.00;0.00;;;16.30;99.90;;;;;;4980360;28;20486;-77
2022/07/06 00:18:23;;;;;;;0.00;0.00;;;16.30;99.90;;;;;;4989208;28;20741;-77
2022/07/06 00:20:51;;;;;;;0.00;0.00;;;16.30;99.90;;;;;;4989212;28;20459;-77
2022/07/06 00:23:19;;;;;;;0.00;0.00;;;16.40;99.90;;;;;;4987192;28;20531;-77
2022/07/06 00:25:49;;;;;;;0.00;0.00;;;16.40;99.90;;;;;;4988620;28;20455;-77
2022/07/06 00:28:17;;;;;;;0.00;0.00;;;16.40;99.90;;;;;;4988022;28;20778;-77
2022/07/06 00:30:45;;;;;;;0.00;0.00;;;16.40;99.90;;;;;;4989816;28;20700;-77
2022/07/06 00:33:13;;;;;;;0.00;0.00;;;16.40;99.90;;;;;;4991028;28;20680;-78
2022/07/06 00:35:41;;;;;;;0.00;0.00;;;16.50;99.90;;;;;;4990368;28;20483;-77
2022/07/06 00:38:09;;;;;;;0.00;0.00;;;16.50;99.90;;;;;;4989514;28;20527;-77
2022/07/06 00:40:36;;;;;;;0.00;0.00;;;16.40;99.90;;;;;;4990234;28;20868;-78
2022/07/06 00:43:06;;;;;;;0.00;0.00;;;16.50;99.90;;;;;;4991232;28;20542;-78
2022/07/06 00:45:34;;;;;;;0.00;0.00;;;16.40;99.90;;;;;;4991175;28;20841;-78
2022/07/06 00:48:02;;;;;;;0.00;0.00;;;16.40;99.90;;;;;;4991691;28;20749;-77
2022/07/06 00:50:31;;;;;;;0.00;0.00;;;16.40;99.90;;;;;;4991059;28;20443;-77
2022/07/06 00:53:02;;;;;;;0.00;0.00;;;16.40;99.90;;;;;;4995044;28;20981;-77
2022/07/06 00:55:32;;;;;;;0.00;0.00;;;16.40;99.90;;;;;;4994810;28;20574;-76
2022/07/06 00:58:01;;;;;;;0.00;0.00;;;16.40;99.90;;;;;;4992711;28;21032;-76
2022/07/06 01:00:32;;;;;;;0.00;0.00;;;16.40;99.90;;;;;;4996047;28;20781;-77
2022/07/06 01:03:00;;;;;;;0.00;0.00;;;16.40;99.90;;;;;;4987731;28;20509;-74
2022/07/06 01:05:27;;;;;;;0.00;0.00;;;16.40;99.90;;;;;;4982668;28;20451;-75
2022/07/06 01:07:56;;;;;;;0.00;0.00;;;16.40;99.90;;;;;;4986294;28;21093;-75
2022/07/06 01:10:24;;;;;;;0.00;0.00;;;16.40;99.90;;;;;;4982495;28;20453;-77
2022/07/06 01:12:52;;;;;;;0.00;0.00;;;16.30;99.90;;;;;;4982889;28;20451;-76
2022/07/06 01:15:22;;;;;;;0.00;0.00;;;16.30;99.90;;;;;;4981518;28;20515;-75
2022/07/06 01:17:52;;;;;;;0.00;0.00;;;16.30;99.90;;;;;;4981340;28;20494;-74
2022/07/06 01:20:22;;;;;;;0.00;0.00;;;16.40;99.90;;;;;;4981848;28;20497;-77
2022/07/06 01:22:51;;;;;;;0.00;0.00;;;16.40;99.90;;;;;;4981081;28;20942;-76
2022/07/06 01:25:20;;;;;;;0.00;0.00;;;16.30;99.90;;;;;;4981669;28;20520;-77
2022/07/06 01:27:49;;;;;;;0.00;0.00;;;16.30;99.90;;;;;;4981098;28;20468;-77
2022/07/06 01:30:18;;;;;;;0.00;0.00;;;16.20;99.90;;;;;;4981484;28;20443;-77
2022/07/06 01:32:46;;;;;;;0.00;0.00;;;16.20;99.90;;;;;;4981354;28;20538;-77
2022/07/06 01:35:15;;;;;;;0.00;0.00;;;16.10;99.90;;;;;;4981466;28;20564;-77
2022/07/06 01:37:44;;;;;;;0.00;0.00;;;16.10;99.90;;;;;;4981477;28;20561;-77
2022/07/06 01:40:13;;;;;;;0.00;0.00;;;16.00;99.90;;;;;;4981365;28;20999;-77
2022/07/06 01:42:41;;;;;;;0.00;0.00;;;16.00;99.90;;;;;;4986540;28;20956;-76
2022/07/06 01:45:10;;;;;;;0.00;0.00;;;16.10;99.90;;;;;;4982451;28;20472;-76
2022/07/06 01:47:38;;;;;;;0.00;0.00;;;16.10;99.90;;;;;;4983402;28;20447;-76
2022/07/06 01:50:08;;;;;;;0.00;0.00;;;16.10;99.90;;;;;;4985949;28;20518;-76
2022/07/06 01:52:37;;;;;;;0.00;0.00;;;16.10;99.90;;;;;;4984473;28;20474;-76
2022/07/06 01:55:07;;;;;;;0.00;0.00;;;16.20;99.90;;;;;;4982840;28;20485;-75
2022/07/06 01:57:35;;;;;;;0.00;0.00;;;16.10;99.90;;;;;;4981866;28;20828;-74
2022/07/06 02:00:05;;;;;;;0.00;0.00;;;16.20;99.90;;;;;;4981912;28;20447;-75
2022/07/06 02:02:33;;;;;;;0.00;0.00;;;16.20;99.90;;;;;;4981384;28;20712;-76
2022/07/06 02:05:01;;;;;;;0.00;0.00;;;16.20;99.90;;;;;;4980864;28;20546;-75
2022/07/06 02:07:29;;;;;;;0.00;0.00;;;16.20;99.90;;;;;;4981295;28;20847;-76
2022/07/06 02:09:57;;;;;;;0.00;0.00;;;16.20;99.90;;;;;;4981528;28;20443;-74
2022/07/06 02:12:26;;;;;;;0.00;0.00;;;16.20;99.90;;;;;;4985292;28;20443;-75
2022/07/06 02:14:53;;;;;;;0.00;0.00;;;16.30;99.90;;;;;;4983777;28;20578;-74
2022/07/06 02:22:39;;;;;;;0.00;0.00;;;16.30;99.90;;;;;;5088659;23;20498;-92
2022/07/06 02:25:07;;;;;;;0.00;0.00;;;16.20;99.90;;;;;;5007687;28;20443;-93
2022/07/06 02:27:37;;;;;;;0.00;0.00;;;16.00;99.90;;;;;;5007228;28;20467;-91
2022/07/06 02:30:06;;;;;;;0.00;0.00;;;15.90;99.90;;;;;;5005556;28;20436;-92
2022/07/06 02:32:34;;;;;;;0.00;0.00;;;15.90;99.90;;;;;;5006878;28;20474;-92
2022/07/06 02:35:02;;;;;;;0.00;0.00;;;15.90;99.90;;;;;;5005409;28;20494;-92
2022/07/06 02:37:30;;;;;;;0.00;0.00;;;15.90;99.90;;;;;;5002717;28;21107;-92
2022/07/06 02:39:58;;;;;;;0.00;0.00;;;15.80;99.90;;;;;;5004388;28;20579;-92
2022/07/06 02:42:26;;;;;;;0.00;0.00;;;15.80;99.90;;;;;;5006850;28;20472;-93
2022/07/06 02:44:56;;;;;;;0.00;0.00;;;15.80;99.90;;;;;;5016782;28;20506;-93
2022/07/06 02:47:24;;;;;;;0.00;0.00;;;15.80;99.90;;;;;;5008234;28;20688;-91
2022/07/06 02:49:52;;;;;;;0.00;0.00;;;15.90;99.90;;;;;;5005845;28;20459;-92
2022/07/06 02:52:20;;;;;;;0.00;0.00;;;15.90;99.90;;;;;;5005983;28;20494;-93
2022/07/06 02:54:48;;;;;;;0.00;0.00;;;15.90;99.90;;;;;;5007949;28;20480;-92
2022/07/06 02:57:16;;;;;;;0.00;0.00;;;15.90;99.90;;;;;;5006434;28;20514;-93
2022/07/06 02:59:45;;;;;;;0.00;0.00;;;16.00;99.90;;;;;;5007703;28;20447;-92
2022/07/06 03:02:15;;;;;;;0.00;0.00;;;16.00;99.90;;;;;;5008839;28;20459;-93
2022/07/06 03:04:42;;;;;;;0.00;0.00;;;16.00;99.90;;;;;;5008801;28;20431;-92
2022/07/06 03:07:11;;;;;;;0.00;0.00;;;15.90;99.90;;;;;;5009146;28;20445;-93
2022/07/06 03:09:39;;;;;;;0.00;0.00;;;16.00;99.90;;;;;;5009094;28;20439;-93
2022/07/06 03:12:08;;;;;;;0.00;0.00;;;16.00;99.90;;;;;;5008779;28;20470;-94
2022/07/06 03:14:36;;;;;;;0.00;0.00;;;16.00;99.90;;;;;;5010184;28;20447;-93
2022/07/06 03:17:04;;;;;;;0.00;0.00;;;15.90;99.90;;;;;;5011631;28;20505;-92
2022/07/06 03:19:34;;;;;;;0.00;0.00;;;16.00;99.90;;;;;;5012093;28;20446;-93
2022/07/06 03:22:02;;;;;;;0.00;0.00;;;16.00;99.90;;;;;;5007412;28;20479;-92
2022/07/06 03:24:30;;;;;;;0.00;0.00;;;15.90;99.90;;;;;;5007821;28;20486;-91
2022/07/06 03:26:58;;;;;;;0.00;0.00;;;15.90;99.90;;;;;;5008097;28;20463;-92
2022/07/06 03:29:26;;;;;;;0.00;0.00;;;16.00;99.90;;;;;;5008567;28;20692;-93
2022/07/06 03:31:54;;;;;;;0.00;0.00;;;15.90;99.90;;;;;;5006312;28;20470;-92
2022/07/06 03:34:23;;;;;;;0.00;0.00;;;16.00;99.90;;;;;;5005897;28;20479;-93
2022/07/06 03:36:52;;;;;;;0.00;0.00;;;16.00;99.90;;;;;;5008030;28;20489;-94
2022/07/06 03:39:21;;;;;;;0.00;0.00;;;16.10;99.90;;;;;;5006491;28;20443;-93
2022/07/06 03:41:49;;;;;;;0.00;0.00;;;16.10;99.90;;;;;;5008289;28;20652;-93
2022/07/06 03:44:17;;;;;;;0.00;0.00;;;16.00;99.90;;;;;;5014605;28;20439;-92
2022/07/06 03:46:45;;;;;;;0.00;0.00;;;16.10;99.90;;;;;;5002912;28;20447;-91
2022/07/06 03:49:13;;;;;;;0.00;0.00;;;16.20;99.90;;;;;;5002357;28;20456;-92
2022/07/06 03:51:41;;;;;;;0.00;0.00;;;16.20;99.90;;;;;;4999516;28;21012;-93
2022/07/06 03:54:10;;;;;;;0.00;0.00;;;16.20;99.90;;;;;;4998226;28;20491;-92
2022/07/06 03:56:38;;;;;;;0.00;0.00;;;16.30;99.90;;;;;;4998664;28;21161;-92
2022/07/06 03:59:06;;;;;;;0.00;0.00;;;16.30;99.90;;;;;;4998739;28;20436;-92
2022/07/06 04:01:34;;;;;;;0.00;0.00;;;16.30;99.90;;;;;;4999165;28;20470;-91
2022/07/06 04:04:03;;;;;;;0.00;0.00;;;16.30;99.90;;;;;;4998222;28;20566;-93
2022/07/06 04:06:31;;;;;;;0.00;0.00;;;16.30;99.90;;;;;;4998912;28;20478;-92
2022/07/06 04:08:59;;;;;;;0.00;0.00;;;16.30;99.90;;;;;;4999284;28;20468;-92
2022/07/06 04:11:29;;;;;;;0.00;0.00;;;16.20;99.90;;;;;;5001526;28;21102;-91
2022/07/06 04:13:58;;;;;;;0.00;0.00;;;16.10;99.90;;;;;;5002945;28;20467;-93
2022/07/06 04:16:26;;;;;;;0.00;0.00;;;16.00;99.90;;;;;;5003694;28;20486;-91
2022/07/06 04:18:54;;;;;;;0.00;0.00;;;15.80;99.90;;;;;;5004616;28;20475;-94
2022/07/06 04:21:22;;;;;;;0.00;0.00;;;15.50;99.90;;;;;;5004395;28;20570;-93
2022/07/06 04:23:50;;;;;;;0.00;0.00;;;15.40;99.90;;;;;;5004197;28;20493;-92
2022/07/06 04:26:19;;;;;;;0.00;0.00;;;15.30;99.90;;;;;;5002401;28;20447;-94
2022/07/06 04:28:48;;;;;;;0.00;0.00;;;15.30;99.90;;;;;;5007034;28;20694;-92
2022/07/06 04:31:16;;;;;;;0.00;0.00;;;15.30;99.90;;;;;;5006022;28;21134;-93
2022/07/06 04:33:45;;;;;;;0.00;0.00;;;15.30;99.90;;;;;;5006082;28;20557;-92
2022/07/06 04:36:13;;;;;;;0.00;0.00;;;15.40;99.90;;;;;;5005203;28;20558;-93
2022/07/06 04:38:41;;;;;;;0.00;0.00;;;15.40;99.90;;;;;;5007095;28;20470;-92
2022/07/06 04:41:09;;;;;;;0.00;0.00;;;15.40;99.90;;;;;;5006584;28;20497;-92
2022/07/06 04:43:37;;;;;;;0.00;0.00;;;15.40;99.90;;;;;;5018681;28;20491;-92
2022/07/06 04:46:09;;;;;;;0.00;0.00;;;15.50;99.90;;;;;;5011220;28;21077;-93
2022/07/06 04:48:39;;;;;;;0.00;0.00;;;15.50;99.90;;;;;;5008839;28;20446;-92
2022/07/06 04:51:07;;;;;;;0.00;0.00;;;15.60;99.90;;;;;;5008309;28;20669;-93
2022/07/06 04:53:36;;;;;;;0.00;0.00;;;15.60;99.90;;;;;;5008997;28;20494;-93
2022/07/06 04:56:05;;;;;;;0.00;0.00;;;15.70;99.90;;;;;;5009360;28;20473;-92
2022/07/06 04:58:33;;;;;;;0.00;0.00;;;15.70;99.90;;;;;;5011823;28;20459;-93
2022/07/06 05:01:03;;;;;;;0.00;0.00;;;15.80;99.90;;;;;;5014398;28;20453;-92
2022/07/06 05:03:35;;;;;;;0.00;0.00;;;15.90;99.90;;;;;;5008561;28;20475;-93
2022/07/06 05:06:05;;;;;;;0.00;0.00;;;15.90;99.90;;;;;;5007174;28;20458;-92
2022/07/06 05:08:33;;;;;;;0.00;0.00;;;16.00;99.90;;;;;;5005014;28;20502;-91
2022/07/06 05:11:01;;;;;;;0.00;0.00;;;15.90;99.90;;;;;;5000489;28;20474;-92
2022/07/06 05:13:29;;;;;;;0.00;0.00;;;15.90;99.90;;;;;;4998907;28;20466;-92
2022/07/06 05:16:00;;;;;;;0.00;0.00;;;15.90;99.90;;;;;;5000390;28;20445;-90
2022/07/06 05:18:28;;;;;;;0.00;0.00;;;15.80;99.90;;;;;;5000200;28;21110;-91
2022/07/06 05:20:58;;;;;;;0.00;0.00;;;15.80;99.90;;;;;;5000911;28;20519;-92
2022/07/06 05:23:26;;;;;;;0.00;0.00;;;15.80;99.90;;;;;;5000995;28;20479;-90
2022/07/06 05:25:54;;;;;;;0.00;0.00;;;15.90;99.90;;;;;;5001474;28;20812;-92
2022/07/06 05:28:22;;;;;;;0.00;0.00;;;15.90;99.90;;;;;;5001413;28;20455;-93
2022/07/06 05:30:51;;;;;;;0.00;0.00;;;15.90;99.90;;;;;;5001312;28;20798;-91
2022/07/06 05:33:20;;;;;;;0.00;0.00;;;16.00;99.90;;;;;;5002912;28;20490;-92
2022/07/06 05:35:49;;;;;;;0.00;0.00;;;16.00;99.90;;;;;;5005161;28;20443;-92
2022/07/06 05:38:23;;;;;;;0.00;0.00;;;16.10;99.90;;;;;;5000831;28;20500;-93
2022/07/06 05:40:52;;;;;;;0.00;0.00;;;16.20;99.90;;;;;;4998380;28;20459;-91
2022/07/06 05:43:20;;;;;;;0.00;0.00;;;16.20;99.90;;;;;;5013541;28;20462;-93
2022/07/06 05:46:01;;;;;;;0.00;0.00;;;16.20;99.90;;;;;;5007159;28;20451;-91
2022/07/06 05:51:15;;;;;;;0.00;0.00;;;16.20;99.90;;;;;;5001725;28;20447;-92
2022/07/06 05:53:44;;;;;;;0.00;0.00;;;16.10;99.90;;;;;;4997072;28;20986;-92
2022/07/06 05:56:12;;;;;;;0.00;0.00;;;16.10;99.90;;;;;;4998502;28;20467;-92
2022/07/06 05:58:40;;;;;;;0.00;0.00;;;16.10;99.90;;;;;;4997992;28;20503;-93
2022/07/06 06:01:08;;;;;;;0.00;0.00;;;16.10;99.90;;;;;;5003812;28;20522;-92
2022/07/06 06:03:37;;;;;;;0.00;0.00;;;16.10;99.90;;;;;;5006271;28;20452;-93
2022/07/06 06:06:05;;;;;;;0.00;0.00;;;16.00;99.90;;;;;;5002334;28;20479;-91
2022/07/06 06:08:33;;;;;;;0.00;0.00;;;16.00;99.90;;;;;;4998890;28;20470;-92
2022/07/06 06:11:05;;;;;;;0.00;0.00;;;15.80;99.90;;;;;;4999112;28;20690;-92
2022/07/06 06:13:38;;;;;;;0.00;0.00;;;15.70;99.90;;;;;;5000313;28;20454;-91
2022/07/06 06:16:06;;;;;;;0.00;0.00;;;15.60;99.90;;;;;;5000377;28;20521;-92
2022/07/06 06:18:35;;;;;;;0.00;0.00;;;15.50;99.90;;;;;;4999077;28;20502;-92
2022/07/06 06:21:09;;;;;;;0.00;0.00;;;15.50;99.90;;;;;;5001327;28;20498;-93
2022/07/06 06:23:37;;;;;;;0.00;0.00;;;15.50;99.90;;;;;;5000804;28;20482;-93
2022/07/06 06:26:07;;;;;;;0.00;0.00;;;15.50;99.90;;;;;;5002741;28;20423;-93
2022/07/06 06:28:36;;;;;;;0.00;0.00;;;15.70;99.90;;;;;;5003630;28;20447;-92
2022/07/06 06:31:04;;;;;;;0.00;0.00;;;15.80;99.90;;;;;;5002993;28;20458;-90
2022/07/06 06:33:33;;;;;;;0.00;0.00;;;15.90;99.90;;;;;;5002957;28;20732;-91
2022/07/06 06:36:01;;;;;;;0.00;0.00;;;16.00;99.90;;;;;;5001356;28;20451;-90
2022/07/06 06:38:30;;;;;;;0.00;0.00;;;16.10;99.90;;;;;;5001349;28;21147;-91
2022/07/06 06:40:58;;;;;;;0.00;0.00;;;16.20;99.90;;;;;;5002569;28;21113;-91
2022/07/06 06:43:28;;;;;;;0.00;0.00;;;16.20;99.90;;;;;;5015222;28;20472;-89
2022/07/06 06:45:56;;;;;;;0.00;0.00;;;16.30;99.90;;;;;;5001516;28;20470;-90
2022/07/06 06:48:25;;;;;;;0.00;0.00;;;16.40;99.90;;;;;;5000824;28;20479;-92
2022/07/06 06:50:53;;;;;;;0.00;0.00;;;16.40;99.90;;;;;;5004132;28;20601;-93
2022/07/06 06:53:22;;;;;;;0.00;0.00;;;16.60;99.90;;;;;;5010576;28;20475;-93
2022/07/06 06:55:51;;;;;;;0.00;0.00;;;16.60;99.90;;;;;;5010205;28;20467;-95
2022/07/06 06:58:19;;;;;;;0.00;0.00;;;16.70;99.90;;;;;;5009168;28;20475;-93
2022/07/06 07:00:49;;;;;;;0.00;0.00;;;16.80;99.90;;;;;;5009595;28;20563;-94
2022/07/06 07:03:17;;;;;;;0.00;0.00;;;16.80;99.90;;;;;;5007662;28;20467;-93
2022/07/06 07:05:45;;;;;;;0.00;0.00;;;16.90;99.90;;;;;;5010340;28;20689;-93
2022/07/06 07:08:13;;;;;;;0.00;0.00;;;17.00;99.90;;;;;;5009457;28;20460;-92
2022/07/06 07:10:43;;;;;;;0.00;0.00;;;17.10;99.90;;;;;;5003990;28;20534;-91
2022/07/06 07:13:11;;;;;;;0.00;0.00;;;17.10;99.90;;;;;;5004227;28;20457;-93
2022/07/06 07:15:40;;;;;;;0.00;0.00;;;17.20;99.90;;;;;;5006744;28;20459;-94
2022/07/06 07:18:09;;;;;;;0.00;0.00;;;17.40;99.90;;;;;;5001284;28;20572;-90
2022/07/06 07:20:50;;;;;;;0.00;0.00;;;17.50;99.90;;;;;;4999316;28;20475;-90
2022/07/06 07:23:18;;;;;;;0.00;0.00;;;17.50;99.90;;;;;;5001392;28;20469;-94
2022/07/06 07:25:46;;;;;;;0.00;0.00;;;17.60;99.90;;;;;;5002133;28;20466;-93
2022/07/06 07:28:14;;;;;;;0.00;0.00;;;17.70;99.90;;;;;;5002536;28;20559;-93
2022/07/06 07:30:42;;;;;;;0.00;0.00;;;17.90;99.90;;;;;;5002318;28;20549;-92
2022/07/06 07:33:11;;;;;;;0.00;0.00;;;18.00;99.90;;;;;;5010633;28;20467;-92
2022/07/06 07:35:40;;;;;;;0.00;0.00;;;18.10;99.90;;;;;;5014272;28;20471;-94
2022/07/06 07:38:08;;;;;;;0.00;0.00;;;18.20;99.90;;;;;;5014107;28;20469;-92
2022/07/06 07:40:36;;;;;;;0.00;0.00;;;18.20;99.90;;;;;;5014651;28;20421;-93
2022/07/06 07:43:04;;;;;;;0.00;0.00;;;18.10;99.90;;;;;;5013067;28;20956;-91
2022/07/06 07:45:32;;;;;;;0.00;0.00;;;18.10;99.90;;;;;;4999180;28;20437;-91
2022/07/06 07:48:02;;;;;;;0.00;0.00;;;18.20;99.90;;;;;;4998460;28;20517;-91
2022/07/06 07:50:31;;;;;;;0.00;0.00;;;18.20;99.90;;;;;;4997277;28;21036;-89
2022/07/06 07:52:59;;;;;;;0.00;0.00;;;18.20;99.90;;;;;;4996297;28;20530;-89
2022/07/06 07:55:27;;;;;;;0.00;0.00;;;18.20;99.90;;;;;;4996458;28;20540;-90
2022/07/06 07:58:08;;;;;;;0.00;0.00;;;18.30;99.90;;;;;;4996029;28;20484;-90
2022/07/06 08:00:37;;;;;;;0.00;0.00;;;18.30;99.90;;;;;;4994871;28;20516;-91
2022/07/06 08:03:04;;;;;;;0.00;0.00;;;18.40;99.90;;;;;;4994627;28;20487;-92
2022/07/06 08:05:34;;;;;;;0.00;0.00;;;18.60;99.90;;;;;;4995117;28;20520;-91
2022/07/06 08:08:03;;;;;;;0.00;0.00;;;18.70;99.90;;;;;;4993642;28;20476;-93
2022/07/06 08:10:32;;;;;;;0.00;0.00;;;18.70;99.90;;;;;;4996025;28;20876;-91
2022/07/06 08:13:08;;;;;;;0.00;0.00;;;18.70;99.90;;;;;;4998057;28;20473;-92
2022/07/06 08:15:36;;;;;;;0.00;0.00;;;18.80;99.90;;;;;;4997746;28;20457;-91
2022/07/06 08:18:04;;;;;;;0.00;0.00;;;18.90;99.90;;;;;;4997104;28;20956;-90
2022/07/06 08:20:34;;;;;;;0.00;0.00;;;19.00;99.90;;;;;;4996246;28;20480;-90
2022/07/06 08:23:04;;;;;;;0.00;0.00;;;19.10;99.90;;;;;;4995385;28;20462;-90
2022/07/06 08:25:32;;;;;;;0.00;0.00;;;19.20;99.90;;;;;;4995095;28;20451;-88
2022/07/06 08:28:00;;;;;;;0.00;0.00;;;19.40;99.90;;;;;;4995470;28;20457;-90
2022/07/06 08:30:31;;;;;;;0.00;0.00;;;19.60;99.90;;;;;;4995661;28;20505;-90
2022/07/06 08:32:59;;;;;;;0.00;0.00;;;19.70;99.90;;;;;;4996152;28;21225;-90
2022/07/06 08:35:36;;;;;;;0.00;0.00;;;19.70;99.90;;;;;;4995794;28;20477;-90
2022/07/06 08:38:05;;;;;;;0.00;0.00;;;19.80;99.90;;;;;;4995658;28;20502;-91
2022/07/06 08:40:35;;;;;;;0.00;0.00;;;19.70;99.90;;;;;;4996376;28;20499;-90
2022/07/06 08:43:04;;;;;;;0.00;0.00;;;19.60;99.90;;;;;;5012911;28;20458;-90
2022/07/06 08:45:35;;;;;;;0.00;0.00;;;19.50;99.90;;;;;;5004446;28;20468;-90
2022/07/06 08:48:06;;;;;;;0.00;0.00;;;19.40;99.90;;;;;;4998724;28;20493;-90
2022/07/06 08:50:36;;;;;;;0.00;0.00;;;19.20;99.90;;;;;;4993261;28;20806;-91
2022/07/06 08:53:04;;;;;;;0.00;0.00;;;19.00;99.90;;;;;;4994045;28;20485;-90
2022/07/06 08:55:34;;;;;;;0.00;0.00;;;19.00;99.90;;;;;;4991797;28;20986;-90
2022/07/06 08:58:04;;;;;;;0.00;0.00;;;18.80;99.90;;;;;;4993769;28;20466;-90
2022/07/06 09:00:34;;;;;;;0.00;0.00;;;18.60;99.90;;;;;;4991414;28;20735;-92
2022/07/06 09:03:02;;;;;;;0.00;0.00;;;18.30;99.90;;;;;;4971910;28;20488;-91
2022/07/06 09:05:32;;;;;;;0.00;0.00;;;18.10;99.90;;;;;;4973006;28;20934;-91
2022/07/06 09:08:03;;;;;;;0.00;0.00;;;17.90;99.90;;;;;;4977291;28;20454;-90
2022/07/06 09:10:31;;;;;;;0.00;0.00;;;17.70;99.90;;;;;;4975934;28;20944;-90
2022/07/06 09:13:04;;;;;;;0.00;0.00;;;17.70;99.90;;;;;;4980942;28;20575;-91
2022/07/06 09:15:33;;;;;;;0.00;0.00;;;17.70;99.90;;;;;;4980689;28;20731;-91
2022/07/06 09:18:01;;;;;;;0.00;0.00;;;17.80;99.90;;;;;;4979246;28;20518;-90
2022/07/06 09:20:32;;;;;;;0.00;0.00;;;17.90;99.90;;;;;;4980031;28;20551;-90
2022/07/06 09:23:03;;;;;;;0.00;0.00;;;18.10;99.90;;;;;;4985348;28;20809;-92
2022/07/06 09:25:31;;;;;;;0.00;0.00;;;18.30;99.90;;;;;;4989021;28;20466;-93
2022/07/06 09:28:00;;;;;;;0.00;0.00;;;18.40;99.90;;;;;;4987895;28;20455;-92
2022/07/06 09:30:29;;;;;;;0.00;0.00;;;18.60;99.90;;;;;;4988268;28;20596;-91
2022/07/06 09:33:00;;;;;;;0.00;0.00;;;18.60;99.90;;;;;;4987992;28;20510;-92
2022/07/06 09:35:30;;;;;;;0.00;0.00;;;18.50;99.90;;;;;;4997363;28;20469;-90
2022/07/06 09:38:07;;;;;;;0.00;0.00;;;18.40;99.90;;;;;;4999682;28;20617;-92
2022/07/06 09:40:37;;;;;;;0.00;0.00;;;18.40;99.90;;;;;;4982807;28;20500;-91
2022/07/06 09:43:13;;;;;;;0.00;0.00;;;18.20;99.90;;;;;;4990346;28;20475;-93
2022/07/06 09:45:45;;;;;;;0.00;0.00;;;18.30;99.90;;;;;;4986614;28;20502;-92
2022/07/06 09:48:18;;;;;;;0.00;0.00;;;18.40;99.90;;;;;;4984959;28;20649;-92
2022/07/06 09:50:52;;;;;;;0.00;0.00;;;18.60;99.90;;;;;;4986594;28;20447;-92
2022/07/06 09:53:24;;;;;;;0.00;0.00;;;18.80;99.90;;;;;;4984202;28;20476;-91
2022/07/06 09:55:58;;;;;;;0.00;0.00;;;19.00;99.90;;;;;;4983722;28;20506;-91
2022/07/06 09:58:26;;;;;;;0.00;0.00;;;19.30;99.90;;;;;;4986824;28;20464;-93
2022/07/06 10:01:29;;;;;;;0.00;0.00;;;19.50;99.90;;;;;;4986924;28;20424;-93
2022/07/06 10:03:57;;;;;;;0.00;0.00;;;19.80;99.90;;;;;;4984746;28;20550;-91
2022/07/06 10:06:27;;;;;;;0.00;0.00;;;20.00;99.90;;;;;;4986861;28;20455;-92
2022/07/06 10:09:02;;;;;;;0.00;0.00;;;20.20;99.90;;;;;;4984277;28;20518;-90
2022/07/06 10:11:39;;;;;;;0.00;0.00;;;20.40;99.90;;;;;;4980978;28;20855;-91
2022/07/06 10:14:08;;;;;;;0.00;0.00;;;20.70;99.90;;;;;;4980472;28;20498;-91
2022/07/06 10:16:38;;;;;;;0.00;0.00;;;20.70;99.90;;;;;;4980949;28;20482;-90
2022/07/06 10:19:08;;;;;;;0.00;0.00;;;20.40;99.90;;;;;;4985477;28;20518;-91
2022/07/06 10:21:45;;;;;;;0.00;0.00;;;20.00;99.90;;;;;;4988020;28;20506;-93
2022/07/06 10:24:22;;;;;;;0.00;0.00;;;19.70;99.90;;;;;;4992396;28;20633;-92
2022/07/06 10:26:52;;;;;;;0.00;0.00;;;19.20;99.90;;;;;;4990591;28;20446;-92
2022/07/06 10:29:29;;;;;;;0.00;0.00;;;18.70;99.90;;;;;;5001612;28;20438;-92
2022/07/06 10:32:02;;;;;;;0.00;0.00;;;18.00;99.90;;;;;;5010126;28;20487;-93
2022/07/06 10:34:31;;;;;;;0.00;0.00;;;17.60;99.90;;;;;;5009728;28;20485;-93
2022/07/06 10:37:03;;;;;;;0.00;0.00;;;17.30;99.90;;;;;;5011820;28;20464;-92
2022/07/06 10:42:49;;;;;;;0.00;0.00;;;16.90;99.90;;;;;;5013607;28;20636;-94
2022/07/06 10:45:36;;;;;;;0.00;0.00;;;16.60;99.90;;;;;;5013147;28;20435;-94
2022/07/06 10:48:24;;;;;;;0.00;0.00;;;16.60;99.90;;;;;;5012500;28;20454;-92
2022/07/06 10:50:56;;;;;;;0.00;0.00;;;16.60;99.90;;;;;;5013025;28;20467;-93
2022/07/06 10:53:33;;;;;;;0.00;0.00;;;16.70;99.90;;;;;;5012284;28;20487;-94
2022/07/06 10:56:08;;;;;;;0.00;0.00;;;16.80;99.90;;;;;;5011320;28;20451;-93
2022/07/06 10:58:43;;;;;;;0.00;0.00;;;17.00;99.90;;;;;;5010642;28;20453;-93
2022/07/06 11:01:12;;;;;;;0.00;0.00;;;17.20;99.90;;;;;;5011042;28;20533;-95
2022/07/06 11:03:43;;;;;;;0.00;0.00;;;17.40;99.90;;;;;;5013727;28;20488;-93
2022/07/06 11:06:14;;;;;;;0.00;0.00;;;17.70;99.90;;;;;;5012180;28;20424;-93
2022/07/06 11:08:48;;;;;;;0.00;0.00;;;17.90;99.90;;;;;;5012066;28;20456;-91
2022/07/06 11:11:20;;;;;;;0.00;0.00;;;18.20;99.90;;;;;;5011854;28;20457;-93
2022/07/06 11:13:57;;;;;;;0.00;0.00;;;18.50;99.90;;;;;;5011411;28;20459;-94
2022/07/06 11:16:27;;;;;;;0.00;0.00;;;18.80;99.90;;;;;;5000900;28;20510;-90
2022/07/06 11:19:09;;;;;;;0.00;0.00;;;19.00;99.90;;;;;;5004382;28;20447;-93
2022/07/06 11:21:49;;;;;;;0.00;0.00;;;19.10;99.90;;;;;;5003780;28;20525;-92
2022/07/06 11:24:20;;;;;;;0.00;0.00;;;19.10;99.90;;;;;;5002671;28;20458;-93
2022/07/06 11:26:52;;;;;;;0.00;0.00;;;19.00;99.90;;;;;;5006810;28;20526;-91
2022/07/06 11:29:25;;;;;;;0.00;0.00;;;19.10;99.90;;;;;;5006443;28;20468;-92
2022/07/06 11:32:03;;;;;;;0.00;0.00;;;19.20;99.90;;;;;;5000137;28;20443;-90
2022/07/06 11:34:35;;;;;;;0.00;0.00;;;19.40;99.90;;;;;;4998956;28;20443;-91
2022/07/06 11:37:09;;;;;;;0.00;0.00;;;19.50;99.90;;;;;;5003031;28;20439;-92
2022/07/06 11:39:50;;;;;;;0.00;0.00;;;19.80;99.90;;;;;;5006845;28;20462;-93
2022/07/06 11:42:30;;;;;;;0.00;0.00;;;20.00;99.90;;;;;;5012334;28;20754;-92
2022/07/06 11:45:04;;;;;;;0.00;0.00;;;20.00;99.90;;;;;;5005186;28;20446;-92
2022/07/06 11:47:36;;;;;;;0.00;0.00;;;20.00;99.90;;;;;;5003823;28;20443;-92
2022/07/06 11:50:06;;;;;;;0.00;0.00;;;19.90;99.90;;;;;;5003912;28;20435;-91
2022/07/06 11:52:35;;;;;;;0.00;0.00;;;19.80;99.90;;;;;;5005195;28;20694;-91
2022/07/06 11:55:06;;;;;;;0.00;0.00;;;19.80;99.90;;;;;;5007467;28;20447;-92
2022/07/06 11:57:40;;;;;;;0.00;0.00;;;19.80;99.90;;;;;;5002928;28;20509;-91
2022/07/06 12:00:12;;;;;;;0.00;0.00;;;19.70;99.90;;;;;;5009776;28;20501;-91
2022/07/06 12:02:41;;;;;;;0.00;0.00;;;19.70;99.90;;;;;;5003370;28;20478;-91
2022/07/06 12:05:11;;;;;;;0.00;0.00;;;19.70;99.90;;;;;;5002488;28;20521;-92
2022/07/06 12:07:40;;;;;;;0.00;0.00;;;19.70;99.90;;;;;;5005926;28;20454;-92
2022/07/06 12:10:10;;;;;;;0.00;0.00;;;19.80;99.90;;;;;;5003266;28;20771;-91
2022/07/06 12:12:41;;;;;;;0.00;0.00;;;19.90;99.90;;;;;;5002681;28;20485;-91
2022/07/06 12:15:11;;;;;;;0.00;0.00;;;19.90;99.90;;;;;;4998591;28;20836;-92
2022/07/06 12:17:43;;;;;;;0.00;0.00;;;19.90;99.90;;;;;;5003651;28;20454;-92
2022/07/06 12:20:15;;;;;;;0.00;0.00;;;19.90;99.90;;;;;;5004266;28;21064;-92
2022/07/06 12:22:44;;;;;;;0.00;0.00;;;20.00;99.90;;;;;;5004539;28;20479;-92
2022/07/06 12:25:31;;;;;;;0.00;0.00;;;20.10;99.90;;;;;;5005500;28;20558;-92
2022/07/06 12:28:02;;;;;;;0.00;0.00;;;20.30;99.90;;;;;;5009296;28;20437;-91
2022/07/06 12:30:31;;;;;;;0.00;0.00;;;20.40;99.90;;;;;;5004907;28;20535;-92
2022/07/06 12:33:16;;;;;;;0.00;0.00;;;20.60;99.90;;;;;;5005943;28;20474;-92
2022/07/06 12:35:46;;;;;;;0.00;0.00;;;20.80;99.90;;;;;;5006973;28;20466;-93
2022/07/06 12:38:24;;;;;;;0.00;0.00;;;21.00;99.90;;;;;;5002626;28;20454;-92
2022/07/06 12:40:55;;;;;;;0.00;0.00;;;21.10;99.90;;;;;;5002113;28;20497;-92
2022/07/06 12:43:42;;;;;;;0.00;0.00;;;21.00;99.90;;;;;;5005688;28;20699;-92
2022/07/06 12:46:30;;;;;;;0.00;0.00;;;21.00;99.90;;;;;;4998415;28;20462;-92
2022/07/06 12:49:13;;;;;;;0.00;0.00;;;20.80;99.90;;;;;;5002067;28;20474;-92
2022/07/06 12:51:59;;;;;;;0.00;0.00;;;20.50;99.90;;;;;;5002892;28;20450;-93
2022/07/06 12:54:33;;;;;;;0.00;0.00;;;20.50;99.90;;;;;;5003499;28;20786;-91
2022/07/06 12:57:13;;;;;;;0.00;0.00;;;20.60;99.90;;;;;;5006224;28;20454;-92
2022/07/06 13:11:59;;;;;;;;;;;;;;;;;;;;;
2022/07/06 13:22:49;;;;;;;0.00;0.00;;;20.80;99.90;;;;;;4735643;30;20495;-92
2022/07/06 13:25:52;;;;;;;0.00;0.00;;;21.10;99.90;;;;;;4730388;30;20474;-90
2022/07/06 13:43:35;;;;;;;0.00;0.00;;;21.00;99.90;;;;;;4698241;30;20554;-91
2022/07/06 13:46:33;;;;;;;0.00;0.00;;;21.00;99.90;;;;;;4762700;30;20461;-90
2022/07/06 13:49:05;;;;;;;0.00;0.00;;;21.00;99.90;;;;;;4791645;30;20500;-90
2022/07/06 13:51:44;;;;;;;0.00;0.00;;;20.90;99.90;;;;;;4790475;29;20641;-88